sensor_id;sensor_type;location;lat;lon;timestamp;noise_LAeq;noise_LA_min;noise_LA_max;noise_LA01;noise_LA95
46393;Laerm;32099;53.588;10.176;2022-09-30T00:01:06;34.03;32.34;44.66;;
46393;Laerm;32099;53.588;10.176;2022-09-30T00:03:32;37.00;32.57;67.22;;
46393;Laerm;32099;53.588;10.176;2022-09-30T00:05:59;35.33;32.71;43.37;;
46393;Laerm;32099;53.588;10.176;2022-09-30T00:08:24;34.60;32.63;38.64;;
46393;Laerm;32099;53.588;10.176;2022-09-30T00:11:00;34.64;32.38;45.51;;
46393;Laerm;32099;53.588;10.176;2022-09-30T00:13:27;34.19;32.43;43.68;;
46393;Laerm;32099;53.588;10.176;2022-09-30T00:15:53;34.28;32.31;49.48;;
46393;Laerm;32099;53.588;10.176;2022-09-30T00:18:18;35.83;32.49;64.18;;
46393;Laerm;32099;53.588;10.176;2022-09-30T00:20:43;34.35;32.53;43.22;;
46393;Laerm;32099;53.588;10.176;2022-09-30T00:23:08;34.60;32.46;59.52;;
46393;Laerm;32099;53.588;10.176;2022-09-30T00:25:34;34.50;32.50;47.09;;
46393;Laerm;32099;53.588;10.176;2022-09-30T00:27:59;34.56;32.49;44.62;;
46393;Laerm;32099;53.588;10.176;2022-09-30T00:30:24;33.91;32.15;46.25;;
46393;Laerm;32099;53.588;10.176;2022-09-30T00:32:49;35.48;32.19;56.24;;
46393;Laerm;32099;53.588;10.176;2022-09-30T00:35:15;34.00;32.42;51.67;;
46393;Laerm;32099;53.588;10.176;2022-09-30T00:37:40;33.91;32.14;46.48;;
46393;Laerm;32099;53.588;10.176;2022-09-30T00:40:06;33.83;32.02;48.56;;
46393;Laerm;32099;53.588;10.176;2022-09-30T00:42:31;35.28;32.37;47.53;;
46393;Laerm;32099;53.588;10.176;2022-09-30T00:45:05;34.10;31.43;45.41;;
46393;Laerm;32099;53.588;10.176;2022-09-30T00:47:40;34.72;32.16;47.52;;
46393;Laerm;32099;53.588;10.176;2022-09-30T00:50:31;35.14;32.10;52.83;;
46393;Laerm;32099;53.588;10.176;2022-09-30T00:58:03;34.06;32.61;38.72;;
46393;Laerm;32099;53.588;10.176;2022-09-30T01:00:30;34.56;32.38;44.48;;
46393;Laerm;32099;53.588;10.176;2022-09-30T01:02:55;35.30;32.67;43.42;;
46393;Laerm;32099;53.588;10.176;2022-09-30T01:05:22;34.41;32.22;54.37;;
46393;Laerm;32099;53.588;10.176;2022-09-30T01:07:49;33.87;32.15;45.64;;
46393;Laerm;32099;53.588;10.176;2022-09-30T01:10:15;34.55;32.50;44.88;;
46393;Laerm;32099;53.588;10.176;2022-09-30T01:12:40;35.04;32.78;42.59;;
46393;Laerm;32099;53.588;10.176;2022-09-30T01:15:06;36.51;33.64;54.94;;
46393;Laerm;32099;53.588;10.176;2022-09-30T01:17:36;34.66;32.53;43.14;;
46393;Laerm;32099;53.588;10.176;2022-09-30T01:28:16;34.53;32.44;44.08;;
46393;Laerm;32099;53.588;10.176;2022-09-30T01:30:59;34.35;32.36;38.72;;
46393;Laerm;32099;53.588;10.176;2022-09-30T01:33:46;34.56;32.61;46.73;;
46393;Laerm;32099;53.588;10.176;2022-09-30T01:36:41;34.37;32.45;47.07;;
46393;Laerm;32099;53.588;10.176;2022-09-30T01:42:02;34.43;32.36;46.87;;
46393;Laerm;32099;53.588;10.176;2022-09-30T01:44:42;36.12;32.57;54.59;;
46393;Laerm;32099;53.588;10.176;2022-09-30T01:47:22;36.66;32.47;52.32;;
46393;Laerm;32099;53.588;10.176;2022-09-30T01:50:07;35.03;32.83;46.93;;
46393;Laerm;32099;53.588;10.176;2022-09-30T01:52:44;34.74;32.86;41.47;;
46393;Laerm;32099;53.588;10.176;2022-09-30T01:55:20;35.06;32.49;41.41;;
46393;Laerm;32099;53.588;10.176;2022-09-30T01:57:56;35.33;33.07;50.66;;
46393;Laerm;32099;53.588;10.176;2022-09-30T02:00:23;35.44;32.79;46.07;;
46393;Laerm;32099;53.588;10.176;2022-09-30T02:02:57;37.41;33.38;49.93;;
46393;Laerm;32099;53.588;10.176;2022-09-30T02:05:37;35.22;33.03;55.55;;
46393;Laerm;32099;53.588;10.176;2022-09-30T02:08:16;35.90;33.05;48.03;;
46393;Laerm;32099;53.588;10.176;2022-09-30T02:10:47;35.27;33.01;41.26;;
46393;Laerm;32099;53.588;10.176;2022-09-30T02:13:40;37.19;33.26;48.95;;
46393;Laerm;32099;53.588;10.176;2022-09-30T02:16:13;36.01;33.32;45.88;;
46393;Laerm;32099;53.588;10.176;2022-09-30T02:18:52;37.03;34.04;58.83;;
46393;Laerm;32099;53.588;10.176;2022-09-30T02:21:23;39.25;33.38;66.67;;
46393;Laerm;32099;53.588;10.176;2022-09-30T02:23:54;37.55;33.76;61.33;;
46393;Laerm;32099;53.588;10.176;2022-09-30T02:26:24;37.71;33.87;51.87;;
46393;Laerm;32099;53.588;10.176;2022-09-30T02:28:57;36.49;33.92;44.68;;
46393;Laerm;32099;53.588;10.176;2022-09-30T02:31:24;36.62;33.85;40.73;;
46393;Laerm;32099;53.588;10.176;2022-09-30T02:33:55;40.67;34.74;69.43;;
46393;Laerm;32099;53.588;10.176;2022-09-30T02:36:32;36.69;33.92;46.86;;
46393;Laerm;32099;53.588;10.176;2022-09-30T02:39:03;37.78;33.97;51.44;;
46393;Laerm;32099;53.588;10.176;2022-09-30T02:41:34;36.89;33.11;58.56;;
46393;Laerm;32099;53.588;10.176;2022-09-30T02:44:02;48.33;33.23;69.30;;
46393;Laerm;32099;53.588;10.176;2022-09-30T02:47:01;51.28;33.64;71.26;;
46393;Laerm;32099;53.588;10.176;2022-09-30T02:49:32;36.78;33.45;51.36;;
46393;Laerm;32099;53.588;10.176;2022-09-30T02:52:33;37.28;33.32;50.51;;
46393;Laerm;32099;53.588;10.176;2022-09-30T02:57:53;46.39;33.67;64.95;;
46393;Laerm;32099;53.588;10.176;2022-09-30T03:00:19;37.43;33.88;51.67;;
46393;Laerm;32099;53.588;10.176;2022-09-30T03:02:45;38.21;33.80;49.17;;
46393;Laerm;32099;53.588;10.176;2022-09-30T03:05:10;37.42;34.13;47.34;;
46393;Laerm;32099;53.588;10.176;2022-09-30T03:07:36;40.29;34.40;65.35;;
46393;Laerm;32099;53.588;10.176;2022-09-30T03:10:11;38.23;33.68;50.21;;
46393;Laerm;32099;53.588;10.176;2022-09-30T03:12:48;37.63;33.53;49.47;;
46393;Laerm;32099;53.588;10.176;2022-09-30T03:21:50;45.33;34.00;64.99;;
46393;Laerm;32099;53.588;10.176;2022-09-30T03:24:44;37.53;34.10;46.07;;
46393;Laerm;32099;53.588;10.176;2022-09-30T03:33:26;37.73;34.17;46.51;;
46393;Laerm;32099;53.588;10.176;2022-09-30T03:36:04;39.31;35.33;48.32;;
46393;Laerm;32099;53.588;10.176;2022-09-30T03:39:05;38.60;34.70;49.15;;
46393;Laerm;32099;53.588;10.176;2022-09-30T03:41:49;44.06;34.63;62.72;;
46393;Laerm;32099;53.588;10.176;2022-09-30T03:44:40;38.72;34.82;50.71;;
46393;Laerm;32099;53.588;10.176;2022-09-30T03:47:08;37.86;34.49;46.87;;
46393;Laerm;32099;53.588;10.176;2022-09-30T03:49:41;38.07;34.81;46.94;;
46393;Laerm;32099;53.588;10.176;2022-09-30T03:52:10;48.98;34.75;68.49;;
46393;Laerm;32099;53.588;10.176;2022-09-30T03:54:49;43.80;34.87;61.88;;
46393;Laerm;32099;53.588;10.176;2022-09-30T03:57:15;39.45;35.83;49.85;;
46393;Laerm;32099;53.588;10.176;2022-09-30T03:59:41;40.44;35.24;55.02;;
46393;Laerm;32099;53.588;10.176;2022-09-30T04:02:06;40.26;35.67;51.07;;
46393;Laerm;32099;53.588;10.176;2022-09-30T04:04:33;50.70;36.86;69.99;;
46393;Laerm;32099;53.588;10.176;2022-09-30T04:06:59;41.78;36.61;54.32;;
46393;Laerm;32099;53.588;10.176;2022-09-30T04:09:24;44.48;36.59;61.63;;
46393;Laerm;32099;53.588;10.176;2022-09-30T04:11:51;41.57;36.89;50.37;;
46393;Laerm;32099;53.588;10.176;2022-09-30T04:14:16;47.59;37.00;64.96;;
46393;Laerm;32099;53.588;10.176;2022-09-30T04:16:41;50.30;37.30;67.88;;
46393;Laerm;32099;53.588;10.176;2022-09-30T04:19:07;44.91;37.56;61.16;;
46393;Laerm;32099;53.588;10.176;2022-09-30T04:21:32;41.02;37.53;50.17;;
46393;Laerm;32099;53.588;10.176;2022-09-30T04:23:57;44.48;37.61;57.79;;
46393;Laerm;32099;53.588;10.176;2022-09-30T04:26:22;49.94;38.23;64.76;;
46393;Laerm;32099;53.588;10.176;2022-09-30T04:28:48;41.99;37.41;63.32;;
46393;Laerm;32099;53.588;10.176;2022-09-30T04:31:14;40.58;37.13;50.98;;
46393;Laerm;32099;53.588;10.176;2022-09-30T04:33:41;41.20;37.51;55.68;;
46393;Laerm;32099;53.588;10.176;2022-09-30T04:36:08;41.86;38.05;52.78;;
46393;Laerm;32099;53.588;10.176;2022-09-30T04:38:34;54.34;38.31;70.74;;
46393;Laerm;32099;53.588;10.176;2022-09-30T04:41:02;50.40;38.14;66.57;;
46393;Laerm;32099;53.588;10.176;2022-09-30T04:43:28;43.17;37.43;58.09;;
46393;Laerm;32099;53.588;10.176;2022-09-30T04:45:54;58.59;39.48;75.43;;
46393;Laerm;32099;53.588;10.176;2022-09-30T04:48:20;53.08;38.94;69.05;;
46393;Laerm;32099;53.588;10.176;2022-09-30T04:50:46;41.68;38.11;51.84;;
46393;Laerm;32099;53.588;10.176;2022-09-30T04:53:12;46.62;38.88;69.09;;
46393;Laerm;32099;53.588;10.176;2022-09-30T04:55:39;51.11;39.35;64.94;;
46393;Laerm;32099;53.588;10.176;2022-09-30T04:58:04;52.37;38.93;69.50;;
46393;Laerm;32099;53.588;10.176;2022-09-30T05:00:30;43.80;38.23;66.36;;
46393;Laerm;32099;53.588;10.176;2022-09-30T05:02:55;54.51;40.27;71.36;;
46393;Laerm;32099;53.588;10.176;2022-09-30T05:05:21;51.89;38.67;63.98;;
46393;Laerm;32099;53.588;10.176;2022-09-30T05:07:47;51.25;38.24;70.52;;
46393;Laerm;32099;53.588;10.176;2022-09-30T05:10:12;54.11;39.21;70.79;;
46393;Laerm;32099;53.588;10.176;2022-09-30T05:12:38;49.83;39.55;68.40;;
46393;Laerm;32099;53.588;10.176;2022-09-30T05:15:05;49.67;39.95;68.60;;
46393;Laerm;32099;53.588;10.176;2022-09-30T05:17:31;56.66;38.99;71.82;;
46393;Laerm;32099;53.588;10.176;2022-09-30T05:19:56;61.60;40.27;77.22;;
46393;Laerm;32099;53.588;10.176;2022-09-30T05:22:22;50.80;39.24;70.03;;
46393;Laerm;32099;53.588;10.176;2022-09-30T05:24:49;44.09;38.96;61.90;;
46393;Laerm;32099;53.588;10.176;2022-09-30T05:27:14;44.03;39.43;62.71;;
46393;Laerm;32099;53.588;10.176;2022-09-30T05:29:39;50.09;39.32;67.82;;
46393;Laerm;32099;53.588;10.176;2022-09-30T05:32:05;49.26;40.11;66.20;;
46393;Laerm;32099;53.588;10.176;2022-09-30T05:34:31;44.12;38.84;60.31;;
46393;Laerm;32099;53.588;10.176;2022-09-30T05:36:57;53.52;40.26;67.83;;
46393;Laerm;32099;53.588;10.176;2022-09-30T05:39:22;56.98;40.13;72.13;;
46393;Laerm;32099;53.588;10.176;2022-09-30T05:41:47;49.85;39.82;67.18;;
46393;Laerm;32099;53.588;10.176;2022-09-30T05:44:12;47.27;39.84;68.81;;
46393;Laerm;32099;53.588;10.176;2022-09-30T05:46:38;56.73;40.36;74.49;;
46393;Laerm;32099;53.588;10.176;2022-09-30T05:49:03;53.97;39.92;72.70;;
46393;Laerm;32099;53.588;10.176;2022-09-30T05:51:28;53.88;40.12;68.42;;
46393;Laerm;32099;53.588;10.176;2022-09-30T05:53:54;54.26;39.59;73.97;;
46393;Laerm;32099;53.588;10.176;2022-09-30T05:56:19;55.52;39.85;70.08;;
46393;Laerm;32099;53.588;10.176;2022-09-30T05:58:44;45.04;39.53;64.90;;
46393;Laerm;32099;53.588;10.176;2022-09-30T06:01:13;43.76;39.05;60.96;;
46393;Laerm;32099;53.588;10.176;2022-09-30T06:03:39;43.35;39.32;64.93;;
46393;Laerm;32099;53.588;10.176;2022-09-30T06:06:05;53.25;39.52;70.49;;
46393;Laerm;32099;53.588;10.176;2022-09-30T06:08:31;53.01;39.65;71.26;;
46393;Laerm;32099;53.588;10.176;2022-09-30T06:10:57;54.10;39.78;72.82;;
46393;Laerm;32099;53.588;10.176;2022-09-30T06:13:26;47.94;39.47;65.57;;
46393;Laerm;32099;53.588;10.176;2022-09-30T06:15:59;43.09;39.19;52.92;;
46393;Laerm;32099;53.588;10.176;2022-09-30T06:18:25;43.02;39.64;48.95;;
46393;Laerm;32099;53.588;10.176;2022-09-30T06:20:51;43.00;39.10;51.44;;
46393;Laerm;32099;53.588;10.176;2022-09-30T06:23:16;43.74;38.84;60.67;;
46393;Laerm;32099;53.588;10.176;2022-09-30T06:25:42;52.93;39.95;72.30;;
46393;Laerm;32099;53.588;10.176;2022-09-30T06:28:08;48.87;39.62;64.37;;
46393;Laerm;32099;53.588;10.176;2022-09-30T06:30:33;51.69;38.91;70.48;;
46393;Laerm;32099;53.588;10.176;2022-09-30T06:32:59;42.27;38.50;53.39;;
46393;Laerm;32099;53.588;10.176;2022-09-30T06:35:25;44.47;39.29;65.43;;
46393;Laerm;32099;53.588;10.176;2022-09-30T06:37:53;53.11;40.06;69.83;;
46393;Laerm;32099;53.588;10.176;2022-09-30T06:40:19;52.16;39.37;72.12;;
46393;Laerm;32099;53.588;10.176;2022-09-30T06:42:48;44.65;39.78;58.94;;
46393;Laerm;32099;53.588;10.176;2022-09-30T06:45:14;51.64;39.46;68.94;;
46393;Laerm;32099;53.588;10.176;2022-09-30T06:47:39;51.24;40.13;69.83;;
46393;Laerm;32099;53.588;10.176;2022-09-30T06:50:04;44.00;39.40;62.65;;
46393;Laerm;32099;53.588;10.176;2022-09-30T06:52:30;55.23;39.99;69.49;;
46393;Laerm;32099;53.588;10.176;2022-09-30T06:54:57;50.00;40.30;71.39;;
46393;Laerm;32099;53.588;10.176;2022-09-30T06:57:24;54.10;40.20;71.87;;
46393;Laerm;32099;53.588;10.176;2022-09-30T06:59:52;54.41;39.53;72.72;;
46393;Laerm;32099;53.588;10.176;2022-09-30T07:02:18;42.42;38.55;53.72;;
46393;Laerm;32099;53.588;10.176;2022-09-30T07:04:44;42.11;38.84;59.21;;
46393;Laerm;32099;53.588;10.176;2022-09-30T07:07:09;43.34;39.62;56.15;;
46393;Laerm;32099;53.588;10.176;2022-09-30T07:09:35;44.88;39.52;63.09;;
46393;Laerm;32099;53.588;10.176;2022-09-30T07:12:00;52.23;39.89;68.20;;
46393;Laerm;32099;53.588;10.176;2022-09-30T07:14:25;42.40;38.16;62.87;;
46393;Laerm;32099;53.588;10.176;2022-09-30T07:16:51;48.19;38.07;64.60;;
46393;Laerm;32099;53.588;10.176;2022-09-30T07:19:17;52.28;39.06;68.14;;
46393;Laerm;32099;53.588;10.176;2022-09-30T07:21:47;48.10;37.97;66.20;;
46393;Laerm;32099;53.588;10.176;2022-09-30T07:24:12;49.74;38.64;66.59;;
46393;Laerm;32099;53.588;10.176;2022-09-30T07:26:37;42.90;38.21;58.67;;
46393;Laerm;32099;53.588;10.176;2022-09-30T07:29:04;47.62;37.92;65.65;;
46393;Laerm;32099;53.588;10.176;2022-09-30T07:31:31;51.82;38.07;68.87;;
46393;Laerm;32099;53.588;10.176;2022-09-30T07:33:56;54.08;37.41;70.07;;
46393;Laerm;32099;53.588;10.176;2022-09-30T07:36:23;49.88;38.47;69.76;;
46393;Laerm;32099;53.588;10.176;2022-09-30T07:38:54;49.27;38.53;66.90;;
46393;Laerm;32099;53.588;10.176;2022-09-30T07:41:23;52.33;38.14;67.38;;
46393;Laerm;32099;53.588;10.176;2022-09-30T07:43:54;52.71;37.31;73.87;;
46393;Laerm;32099;53.588;10.176;2022-09-30T07:46:23;47.26;37.45;66.77;;
46393;Laerm;32099;53.588;10.176;2022-09-30T07:48:51;47.83;38.42;64.39;;
46393;Laerm;32099;53.588;10.176;2022-09-30T07:51:24;48.69;37.55;65.93;;
46393;Laerm;32099;53.588;10.176;2022-09-30T07:53:55;46.92;37.58;63.44;;
46393;Laerm;32099;53.588;10.176;2022-09-30T07:56:22;43.14;38.18;59.33;;
46393;Laerm;32099;53.588;10.176;2022-09-30T07:58:47;51.16;37.78;69.32;;
46393;Laerm;32099;53.588;10.176;2022-09-30T08:01:13;45.68;37.60;59.98;;
46393;Laerm;32099;53.588;10.176;2022-09-30T08:03:41;41.93;36.90;55.98;;
46393;Laerm;32099;53.588;10.176;2022-09-30T08:06:14;57.33;37.83;75.71;;
46393;Laerm;32099;53.588;10.176;2022-09-30T08:08:41;41.18;37.17;52.76;;
46393;Laerm;32099;53.588;10.176;2022-09-30T08:11:08;50.38;37.69;68.13;;
46393;Laerm;32099;53.588;10.176;2022-09-30T08:13:33;44.84;38.05;55.43;;
46393;Laerm;32099;53.588;10.176;2022-09-30T08:15:59;53.68;37.75;70.15;;
46393;Laerm;32099;53.588;10.176;2022-09-30T08:18:24;54.05;37.65;69.79;;
46393;Laerm;32099;53.588;10.176;2022-09-30T08:20:50;50.05;37.09;69.81;;
46393;Laerm;32099;53.588;10.176;2022-09-30T08:23:15;47.75;37.22;64.45;;
46393;Laerm;32099;53.588;10.176;2022-09-30T08:25:40;49.47;36.56;67.32;;
46393;Laerm;32099;53.588;10.176;2022-09-30T08:28:05;42.00;36.55;57.72;;
46393;Laerm;32099;53.588;10.176;2022-09-30T08:30:34;46.61;37.41;63.69;;
46393;Laerm;32099;53.588;10.176;2022-09-30T08:32:59;54.71;37.83;70.65;;
46393;Laerm;32099;53.588;10.176;2022-09-30T08:35:24;52.51;37.87;70.35;;
46393;Laerm;32099;53.588;10.176;2022-09-30T08:37:50;42.12;37.80;62.70;;
46393;Laerm;32099;53.588;10.176;2022-09-30T08:40:24;53.60;37.02;69.02;;
46393;Laerm;32099;53.588;10.176;2022-09-30T08:43:20;47.88;36.31;67.14;;
46393;Laerm;32099;53.588;10.176;2022-09-30T08:46:36;51.02;35.14;68.53;;
46393;Laerm;32099;53.588;10.176;2022-09-30T08:49:33;47.91;36.34;72.59;;
46393;Laerm;32099;53.588;10.176;2022-09-30T08:52:04;58.16;36.37;75.29;;
46393;Laerm;32099;53.588;10.176;2022-09-30T08:54:35;54.03;36.66;74.64;;
46393;Laerm;32099;53.588;10.176;2022-09-30T08:57:02;49.53;36.53;68.14;;
46393;Laerm;32099;53.588;10.176;2022-09-30T08:59:32;53.21;35.93;72.93;;
46393;Laerm;32099;53.588;10.176;2022-09-30T09:02:15;52.36;37.06;70.94;;
46393;Laerm;32099;53.588;10.176;2022-09-30T09:04:43;49.44;40.06;67.12;;
46393;Laerm;32099;53.588;10.176;2022-09-30T09:07:21;50.34;39.72;66.35;;
46393;Laerm;32099;53.588;10.176;2022-09-30T09:10:10;51.82;36.11;70.25;;
46393;Laerm;32099;53.588;10.176;2022-09-30T09:12:52;57.43;37.38;71.04;;
46393;Laerm;32099;53.588;10.176;2022-09-30T09:15:55;53.64;35.67;71.50;;
46393;Laerm;32099;53.588;10.176;2022-09-30T09:18:37;52.88;35.35;73.85;;
46393;Laerm;32099;53.588;10.176;2022-09-30T09:21:22;50.46;35.25;67.36;;
46393;Laerm;32099;53.588;10.176;2022-09-30T09:23:55;53.70;34.75;71.91;;
46393;Laerm;32099;53.588;10.176;2022-09-30T09:26:23;39.62;34.96;57.93;;
46393;Laerm;32099;53.588;10.176;2022-09-30T09:29:19;53.77;37.78;72.62;;
46393;Laerm;32099;53.588;10.176;2022-09-30T09:31:46;55.55;37.57;71.62;;
46393;Laerm;32099;53.588;10.176;2022-09-30T09:34:13;52.08;36.79;71.28;;
46393;Laerm;32099;53.588;10.176;2022-09-30T09:39:30;51.38;37.48;73.09;;
46393;Laerm;32099;53.588;10.176;2022-09-30T09:42:09;52.98;37.84;77.85;;
46393;Laerm;32099;53.588;10.176;2022-09-30T09:44:48;53.43;36.11;74.13;;
46393;Laerm;32099;53.588;10.176;2022-09-30T09:47:17;52.59;36.65;69.23;;
46393;Laerm;32099;53.588;10.176;2022-09-30T09:54:39;54.59;36.47;72.43;;
46393;Laerm;32099;53.588;10.176;2022-09-30T09:57:16;44.10;36.77;60.36;;
46393;Laerm;32099;53.588;10.176;2022-09-30T10:00:04;52.16;36.52;69.21;;
46393;Laerm;32099;53.588;10.176;2022-09-30T10:05:34;46.60;37.10;63.60;;
46393;Laerm;32099;53.588;10.176;2022-09-30T10:08:17;56.95;37.46;74.14;;
46393;Laerm;32099;53.588;10.176;2022-09-30T10:10:45;54.58;36.54;72.65;;
46393;Laerm;32099;53.588;10.176;2022-09-30T10:13:22;46.38;36.41;67.84;;
46393;Laerm;32099;53.588;10.176;2022-09-30T10:15:52;48.21;35.98;67.05;;
46393;Laerm;32099;53.588;10.176;2022-09-30T10:18:22;53.21;35.69;72.93;;
46393;Laerm;32099;53.588;10.176;2022-09-30T10:20:55;50.31;36.36;68.78;;
46393;Laerm;32099;53.588;10.176;2022-09-30T10:23:27;44.53;36.67;60.40;;
46393;Laerm;32099;53.588;10.176;2022-09-30T10:25:57;59.64;35.81;76.92;;
46393;Laerm;32099;53.588;10.176;2022-09-30T10:28:26;51.54;40.15;70.29;;
46393;Laerm;32099;53.588;10.176;2022-09-30T10:30:56;54.63;36.16;72.51;;
46393;Laerm;32099;53.588;10.176;2022-09-30T10:33:34;55.97;34.89;72.59;;
46393;Laerm;32099;53.588;10.176;2022-09-30T10:38:31;58.46;38.08;79.94;;
46393;Laerm;32099;53.588;10.176;2022-09-30T10:40:59;54.97;36.80;80.96;;
46393;Laerm;32099;53.588;10.176;2022-09-30T10:43:29;47.37;37.13;59.70;;
46393;Laerm;32099;53.588;10.176;2022-09-30T10:45:57;56.34;40.31;74.90;;
46393;Laerm;32099;53.588;10.176;2022-09-30T10:48:32;49.99;37.01;68.33;;
46393;Laerm;32099;53.588;10.176;2022-09-30T10:50:58;56.37;36.90;83.21;;
46393;Laerm;32099;53.588;10.176;2022-09-30T10:53:26;58.42;37.77;73.84;;
46393;Laerm;32099;53.588;10.176;2022-09-30T10:55:54;56.84;37.72;72.90;;
46393;Laerm;32099;53.588;10.176;2022-09-30T11:01:37;54.11;35.46;81.60;;
46393;Laerm;32099;53.588;10.176;2022-09-30T11:04:23;53.59;35.60;73.34;;
46393;Laerm;32099;53.588;10.176;2022-09-30T11:06:55;51.80;35.80;76.96;;
46393;Laerm;32099;53.588;10.176;2022-09-30T11:09:33;50.71;36.01;69.77;;
46393;Laerm;32099;53.588;10.176;2022-09-30T11:12:13;54.42;36.00;73.75;;
46393;Laerm;32099;53.588;10.176;2022-09-30T11:14:59;56.72;36.53;72.24;;
46393;Laerm;32099;53.588;10.176;2022-09-30T11:17:33;54.28;36.60;74.42;;
46393;Laerm;32099;53.588;10.176;2022-09-30T11:20:16;45.71;35.55;78.64;;
46393;Laerm;32099;53.588;10.176;2022-09-30T11:23:12;50.98;37.69;73.12;;
46393;Laerm;32099;53.588;10.176;2022-09-30T11:25:57;55.96;34.76;73.29;;
46393;Laerm;32099;53.588;10.176;2022-09-30T11:31:35;53.50;35.44;70.42;;
46393;Laerm;32099;53.588;10.176;2022-09-30T11:45:06;51.78;35.22;68.16;;
46393;Laerm;32099;53.588;10.176;2022-09-30T11:50:51;55.82;36.41;72.87;;
46393;Laerm;32099;53.588;10.176;2022-09-30T11:53:45;48.56;36.13;67.74;;
46393;Laerm;32099;53.588;10.176;2022-09-30T11:59:06;47.27;34.64;64.87;;
46393;Laerm;32099;53.588;10.176;2022-09-30T12:01:40;54.35;36.71;70.81;;
46393;Laerm;32099;53.588;10.176;2022-09-30T12:04:16;42.44;35.78;63.02;;
46393;Laerm;32099;53.588;10.176;2022-09-30T12:06:49;50.12;35.65;72.86;;
46393;Laerm;32099;53.588;10.176;2022-09-30T12:09:23;47.19;34.71;64.51;;
46393;Laerm;32099;53.588;10.176;2022-09-30T12:11:55;41.03;35.39;54.34;;
46393;Laerm;32099;53.588;10.176;2022-09-30T12:14:38;47.88;35.77;67.82;;
46393;Laerm;32099;53.588;10.176;2022-09-30T12:17:13;50.22;36.01;67.15;;
46393;Laerm;32099;53.588;10.176;2022-09-30T12:19:44;52.42;37.79;69.97;;
46393;Laerm;32099;53.588;10.176;2022-09-30T12:24:43;39.62;35.16;49.64;;
46393;Laerm;32099;53.588;10.176;2022-09-30T12:27:24;50.59;34.73;67.14;;
46393;Laerm;32099;53.588;10.176;2022-09-30T12:29:58;47.22;35.37;78.58;;
46393;Laerm;32099;53.588;10.176;2022-09-30T12:33:17;53.62;36.90;69.54;;
46393;Laerm;32099;53.588;10.176;2022-09-30T12:38:58;41.02;36.26;61.37;;
46393;Laerm;32099;53.588;10.176;2022-09-30T12:42:01;50.17;34.70;68.90;;
46393;Laerm;32099;53.588;10.176;2022-09-30T12:47:43;50.42;34.84;69.57;;
46393;Laerm;32099;53.588;10.176;2022-09-30T12:50:14;57.16;35.04;73.90;;
46393;Laerm;32099;53.588;10.176;2022-09-30T12:52:42;39.68;33.31;54.56;;
46393;Laerm;32099;53.588;10.176;2022-09-30T12:55:20;48.98;34.78;67.26;;
46393;Laerm;32099;53.588;10.176;2022-09-30T12:57:46;53.25;37.99;70.37;;
46393;Laerm;32099;53.588;10.176;2022-09-30T13:00:16;47.47;36.36;65.87;;
46393;Laerm;32099;53.588;10.176;2022-09-30T13:03:05;41.56;35.79;54.22;;
46393;Laerm;32099;53.588;10.176;2022-09-30T13:10:29;45.87;35.86;65.49;;
46393;Laerm;32099;53.588;10.176;2022-09-30T13:13:18;55.76;34.79;72.42;;
46393;Laerm;32099;53.588;10.176;2022-09-30T13:15:45;45.36;37.26;78.52;;
46393;Laerm;32099;53.588;10.176;2022-09-30T13:23:44;52.10;36.40;80.92;;
46393;Laerm;32099;53.588;10.176;2022-09-30T13:31:31;39.62;34.85;53.55;;
46393;Laerm;32099;53.588;10.176;2022-09-30T13:34:30;47.15;35.02;66.21;;
46393;Laerm;32099;53.588;10.176;2022-09-30T13:37:30;55.35;36.20;75.23;;
46393;Laerm;32099;53.588;10.176;2022-09-30T13:39:50;58.25;37.34;81.48;;
46393;Laerm;32099;53.588;10.176;2022-09-30T13:45:00;48.42;37.05;70.44;;
46393;Laerm;32099;53.588;10.176;2022-09-30T13:47:32;51.38;36.03;67.95;;
46393;Laerm;32099;53.588;10.176;2022-09-30T13:52:36;51.75;35.09;69.81;;
46393;Laerm;32099;53.588;10.176;2022-09-30T13:55:13;56.65;34.52;74.49;;
46393;Laerm;32099;53.588;10.176;2022-09-30T13:57:58;46.29;35.36;64.26;;
46393;Laerm;32099;53.588;10.176;2022-09-30T14:00:38;50.29;35.03;69.34;;
46393;Laerm;32099;53.588;10.176;2022-09-30T14:03:22;49.91;36.26;70.18;;
46393;Laerm;32099;53.588;10.176;2022-09-30T14:06:40;52.80;36.95;77.90;;
46393;Laerm;32099;53.588;10.176;2022-09-30T14:09:22;49.74;35.22;69.95;;
46393;Laerm;32099;53.588;10.176;2022-09-30T14:12:01;45.31;34.23;70.96;;
46393;Laerm;32099;53.588;10.176;2022-09-30T14:15:03;51.55;34.50;73.39;;
46393;Laerm;32099;53.588;10.176;2022-09-30T14:20:40;45.67;34.70;63.07;;
46393;Laerm;32099;53.588;10.176;2022-09-30T14:23:15;49.22;35.66;65.99;;
46393;Laerm;32099;53.588;10.176;2022-09-30T14:25:57;49.57;34.85;73.22;;
46393;Laerm;32099;53.588;10.176;2022-09-30T14:28:32;49.19;36.50;65.73;;
46393;Laerm;32099;53.588;10.176;2022-09-30T14:31:01;44.18;35.87;58.25;;
46393;Laerm;32099;53.588;10.176;2022-09-30T14:33:32;48.71;35.45;64.29;;
46393;Laerm;32099;53.588;10.176;2022-09-30T14:36:02;51.63;36.32;78.81;;
46393;Laerm;32099;53.588;10.176;2022-09-30T14:38:31;55.33;36.27;83.95;;
46393;Laerm;32099;53.588;10.176;2022-09-30T14:41:02;57.67;35.54;86.17;;
46393;Laerm;32099;53.588;10.176;2022-09-30T14:43:38;54.39;36.48;81.58;;
46393;Laerm;32099;53.588;10.176;2022-09-30T14:46:09;51.93;37.31;70.67;;
46393;Laerm;32099;53.588;10.176;2022-09-30T14:48:41;53.84;34.69;74.83;;
46393;Laerm;32099;53.588;10.176;2022-09-30T14:51:14;42.54;36.04;63.41;;
46393;Laerm;32099;53.588;10.176;2022-09-30T14:53:51;49.10;36.94;67.82;;
46393;Laerm;32099;53.588;10.176;2022-09-30T14:56:28;49.17;35.60;64.78;;
46393;Laerm;32099;53.588;10.176;2022-09-30T14:58:55;50.91;36.33;73.27;;
46393;Laerm;32099;53.588;10.176;2022-09-30T15:01:24;48.16;36.24;67.31;;
46393;Laerm;32099;53.588;10.176;2022-09-30T15:04:03;50.90;36.13;72.92;;
46393;Laerm;32099;53.588;10.176;2022-09-30T15:06:36;55.13;35.70;76.85;;
46393;Laerm;32099;53.588;10.176;2022-09-30T15:09:07;47.02;36.86;69.06;;
46393;Laerm;32099;53.588;10.176;2022-09-30T15:11:39;49.59;36.29;67.04;;
46393;Laerm;32099;53.588;10.176;2022-09-30T15:14:10;49.99;37.68;65.48;;
46393;Laerm;32099;53.588;10.176;2022-09-30T15:16:53;53.45;36.48;71.98;;
46393;Laerm;32099;53.588;10.176;2022-09-30T15:19:21;53.42;35.59;69.98;;
46393;Laerm;32099;53.588;10.176;2022-09-30T15:21:49;47.76;35.48;65.78;;
46393;Laerm;32099;53.588;10.176;2022-09-30T15:24:16;49.97;34.76;67.34;;
46393;Laerm;32099;53.588;10.176;2022-09-30T15:26:42;41.13;33.96;57.27;;
46393;Laerm;32099;53.588;10.176;2022-09-30T15:29:15;39.37;34.89;53.43;;
46393;Laerm;32099;53.588;10.176;2022-09-30T15:32:07;53.45;35.01;77.51;;
46393;Laerm;32099;53.588;10.176;2022-09-30T15:34:37;41.34;35.97;60.75;;
46393;Laerm;32099;53.588;10.176;2022-09-30T15:37:03;49.33;36.47;66.72;;
46393;Laerm;32099;53.588;10.176;2022-09-30T15:39:38;48.56;36.16;66.80;;